sensor_id;sensor_type;location;lat;lon;timestamp;temperature;humidity
10441;DHT22;5268;49.346;9.522;2022-12-18T04:21:37;-9.50;99.90
10441;DHT22;5268;49.346;9.522;2022-12-18T04:26:39;-9.50;99.90
10441;DHT22;5268;49.346;9.522;2022-12-18T04:31:41;-9.50;99.90
10441;DHT22;5268;49.346;9.522;2022-12-18T04:36:45;-9.60;99.90
10441;DHT22;5268;49.346;9.522;2022-12-18T04:41:47;-9.90;99.90
10441;DHT22;5268;49.346;9.522;2022-12-18T04:46:49;-10.00;99.90
10441;DHT22;5268;49.346;9.522;2022-12-18T04:51:52;-9.90;99.90
10441;DHT22;5268;49.346;9.522;2022-12-18T04:56:54;-9.80;99.90
10441;DHT22;5268;49.346;9.522;2022-12-18T05:01:56;-9.70;99.90
10441;DHT22;5268;49.346;9.522;2022-12-18T05:07:00;-9.70;99.90
10441;DHT22;5268;49.346;9.522;2022-12-18T05:12:02;-9.60;99.90
10441;DHT22;5268;49.346;9.522;2022-12-18T05:17:04;-9.70;99.90
10441;DHT22;5268;49.346;9.522;2022-12-18T05:22:08;-9.70;99.90
10441;DHT22;5268;49.346;9.522;2022-12-18T05:27:10;-9.70;99.90
10441;DHT22;5268;49.346;9.522;2022-12-18T05:32:13;-9.70;99.90
10441;DHT22;5268;49.346;9.522;2022-12-18T05:37:16;-9.70;99.90
10441;DHT22;5268;49.346;9.522;2022-12-18T05:42:19;-9.70;99.90
10441;DHT22;5268;49.346;9.522;2022-12-18T05:47:21;-10.00;99.90
10441;DHT22;5268;49.346;9.522;2022-12-18T05:52:24;-9.90;99.90
10441;DHT22;5268;49.346;9.522;2022-12-18T05:57:26;-9.90;99.90
10441;DHT22;5268;49.346;9.522;2022-12-18T06:02:28;-9.90;99.90
10441;DHT22;5268;49.346;9.522;2022-12-18T06:07:32;-9.80;99.90
10441;DHT22;5268;49.346;9.522;2022-12-18T06:12:34;-9.80;99.90
10441;DHT22;5268;49.346;9.522;2022-12-18T06:17:36;-9.80;99.90
10441;DHT22;5268;49.346;9.522;2022-12-18T06:22:40;-9.80;99.90
10441;DHT22;5268;49.346;9.522;2022-12-18T06:27:42;-9.90;99.90
10441;DHT22;5268;49.346;9.522;2022-12-18T06:32:45;-9.90;99.90
10441;DHT22;5268;49.346;9.522;2022-12-18T06:37:48;-9.90;99.90
10441;DHT22;5268;49.346;9.522;2022-12-18T06:42:50;-9.90;99.90
10441;DHT22;5268;49.346;9.522;2022-12-18T06:47:52;-10.00;99.90
10441;DHT22;5268;49.346;9.522;2022-12-18T06:52:56;-9.90;99.90
10441;DHT22;5268;49.346;9.522;2022-12-18T06:57:58;-9.90;99.90
10441;DHT22;5268;49.346;9.522;2022-12-18T07:03:00;-9.90;99.90
10441;DHT22;5268;49.346;9.522;2022-12-18T07:08:04;-9.90;99.90
10441;DHT22;5268;49.346;9.522;2022-12-18T07:13:06;-9.80;99.90
10441;DHT22;5268;49.346;9.522;2022-12-18T07:18:09;-9.80;99.90
10441;DHT22;5268;49.346;9.522;2022-12-18T07:23:12;-9.70;99.90
10441;DHT22;5268;49.346;9.522;2022-12-18T07:28:15;-9.70;99.90
10441;DHT22;5268;49.346;9.522;2022-12-18T07:33:17;-9.60;99.90
10441;DHT22;5268;49.346;9.522;2022-12-18T07:38:21;-9.50;99.90
10441;DHT22;5268;49.346;9.522;2022-12-18T07:43:23;-9.50;99.90
10441;DHT22;5268;49.346;9.522;2022-12-18T07:48:25;-9.40;99.90
10441;DHT22;5268;49.346;9.522;2022-12-18T07:53:28;-9.40;99.90
10441;DHT22;5268;49.346;9.522;2022-12-18T07:58:31;-9.30;99.90
10441;DHT22;5268;49.346;9.522;2022-12-18T08:03:34;-9.20;99.90
10441;DHT22;5268;49.346;9.522;2022-12-18T08:08:37;-9.20;99.90
10441;DHT22;5268;49.346;9.522;2022-12-18T08:13:41;-9.20;99.90
10441;DHT22;5268;49.346;9.522;2022-12-18T08:18:44;-9.20;99.90
10441;DHT22;5268;49.346;9.522;2022-12-18T08:23:47;-9.10;99.90
10441;DHT22;5268;49.346;9.522;2022-12-18T08:28:50;-9.10;99.90
10441;DHT22;5268;49.346;9.522;2022-12-18T08:33:53;-9.10;99.90
10441;DHT22;5268;49.346;9.522;2022-12-18T08:38:56;-9.00;99.90
10441;DHT22;5268;49.346;9.522;2022-12-18T08:43:58;-8.90;99.90
10441;DHT22;5268;49.346;9.522;2022-12-18T08:49:18;-8.90;99.90
10441;DHT22;5268;49.346;9.522;2022-12-18T08:54:21;-8.70;99.90
10441;DHT22;5268;49.346;9.522;2022-12-18T08:59:23;-8.60;99.90
10441;DHT22;5268;49.346;9.522;2022-12-18T09:04:28;-8.50;99.90
10441;DHT22;5268;49.346;9.522;2022-12-18T09:09:32;-8.30;99.90
10441;DHT22;5268;49.346;9.522;2022-12-18T09:14:34;-8.20;99.90
10441;DHT22;5268;49.346;9.522;2022-12-18T09:19:37;-8.00;99.90
10441;DHT22;5268;49.346;9.522;2022-12-18T09:24:41;-7.90;99.90
10441;DHT22;5268;49.346;9.522;2022-12-18T09:29:43;-7.70;99.90
10441;DHT22;5268;49.346;9.522;2022-12-18T09:34:45;-7.50;99.90
10441;DHT22;5268;49.346;9.522;2022-12-18T09:39:49;-7.30;99.90
10441;DHT22;5268;49.346;9.522;2022-12-18T09:44:53;-7.10;99.90
10441;DHT22;5268;49.346;9.522;2022-12-18T09:49:58;-6.80;99.90
10441;DHT22;5268;49.346;9.522;2022-12-18T09:55:10;-6.60;99.90
10441;DHT22;5268;49.346;9.522;2022-12-18T10:00:17;-6.40;99.90
10441;DHT22;5268;49.346;9.522;2022-12-18T10:05:27;-6.20;99.90
10441;DHT22;5268;49.346;9.522;2022-12-18T10:10:38;-5.90;99.90
10441;DHT22;5268;49.346;9.522;2022-12-18T10:15:53;-5.70;99.90
10441;DHT22;5268;49.346;9.522;2022-12-18T10:20:59;-5.50;99.90
10441;DHT22;5268;49.346;9.522;2022-12-18T10:26:06;-5.30;99.90
10441;DHT22;5268;49.346;9.522;2022-12-18T10:31:14;-5.00;99.90
10441;DHT22;5268;49.346;9.522;2022-12-18T10:36:20;-4.80;99.90
10441;DHT22;5268;49.346;9.522;2022-12-18T10:41:27;-4.50;99.90
10441;DHT22;5268;49.346;9.522;2022-12-18T10:46:31;-4.40;99.90
10441;DHT22;5268;49.346;9.522;2022-12-18T10:51:36;-4.20;99.90
10441;DHT22;5268;49.346;9.522;2022-12-18T10:56:40;-4.10;99.90
10441;DHT22;5268;49.346;9.522;2022-12-18T11:01:49;-4.00;99.90
10441;DHT22;5268;49.346;9.522;2022-12-18T11:06:54;-3.90;99.90
10441;DHT22;5268;49.346;9.522;2022-12-18T11:12:00;-3.80;99.90
10441;DHT22;5268;49.346;9.522;2022-12-18T11:17:03;-3.70;99.90
10441;DHT22;5268;49.346;9.522;2022-12-18T11:22:19;-3.60;99.90
10441;DHT22;5268;49.346;9.522;2022-12-18T11:27:23;-3.50;99.90
10441;DHT22;5268;49.346;9.522;2022-12-18T11:32:32;-3.40;99.90
10441;DHT22;5268;49.346;9.522;2022-12-18T11:37:35;-3.30;99.90
10441;DHT22;5268;49.346;9.522;2022-12-18T11:42:44;-3.10;99.90
10441;DHT22;5268;49.346;9.522;2022-12-18T11:47:52;-2.80;99.90
10441;DHT22;5268;49.346;9.522;2022-12-18T11:52:56;-2.50;99.90
10441;DHT22;5268;49.346;9.522;2022-12-18T11:58:03;-2.20;99.90
10441;DHT22;5268;49.346;9.522;2022-12-18T12:03:21;-2.00;99.90
10441;DHT22;5268;49.346;9.522;2022-12-18T12:08:34;-1.80;99.90
10441;DHT22;5268;49.346;9.522;2022-12-18T12:13:48;-1.70;99.90
10441;DHT22;5268;49.346;9.522;2022-12-18T12:19:05;-1.50;99.90
10441;DHT22;5268;49.346;9.522;2022-12-18T12:24:26;-1.50;99.90
10441;DHT22;5268;49.346;9.522;2022-12-18T12:29:41;-1.30;99.90
10441;DHT22;5268;49.346;9.522;2022-12-18T12:34:55;-1.30;99.90
10441;DHT22;5268;49.346;9.522;2022-12-18T12:40:02;-1.20;99.90
10441;DHT22;5268;49.346;9.522;2022-12-18T12:45:14;-1.10;99.90
10441;DHT22;5268;49.346;9.522;2022-12-18T12:50:19;-1.10;99.90
10441;DHT22;5268;49.346;9.522;2022-12-18T12:55:23;-1.00;99.90
10441;DHT22;5268;49.346;9.522;2022-12-18T13:00:31;-1.00;99.90
10441;DHT22;5268;49.346;9.522;2022-12-18T13:05:43;-1.00;99.90
10441;DHT22;5268;49.346;9.522;2022-12-18T13:10:48;-1.00;99.90
10441;DHT22;5268;49.346;9.522;2022-12-18T13:16:05;-0.90;99.90
10441;DHT22;5268;49.346;9.522;2022-12-18T13:21:18;-1.00;99.90
10441;DHT22;5268;49.346;9.522;2022-12-18T13:26:40;-1.00;99.90
10441;DHT22;5268;49.346;9.522;2022-12-18T13:32:10;-1.00;99.90
10441;DHT22;5268;49.346;9.522;2022-12-18T13:37:40;-1.00;99.90
10441;DHT22;5268;49.346;9.522;2022-12-18T13:42:42;-1.00;99.90
10441;DHT22;5268;49.346;9.522;2022-12-18T13:48:03;-1.00;99.90
10441;DHT22;5268;49.346;9.522;2022-12-18T13:53:06;-1.10;99.90
10441;DHT22;5268;49.346;9.522;2022-12-18T13:58:12;-1.10;99.90
10441;DHT22;5268;49.346;9.522;2022-12-18T14:03:23;-1.10;99.90
10441;DHT22;5268;49.346;9.522;2022-12-18T14:08:32;-1.20;99.90
10441;DHT22;5268;49.346;9.522;2022-12-18T14:13:37;-1.20;99.90
10441;DHT22;5268;49.346;9.522;2022-12-18T14:18:46;-1.30;99.90
10441;DHT22;5268;49.346;9.522;2022-12-18T14:24:03;-1.30;99.90
10441;DHT22;5268;49.346;9.522;2022-12-18T14:29:19;-1.30;99.90
10441;DHT22;5268;49.346;9.522;2022-12-18T14:34:26;-1.50;99.90
10441;DHT22;5268;49.346;9.522;2022-12-18T14:39:28;-1.50;99.90
10441;DHT22;5268;49.346;9.522;2022-12-18T14:44:30;-1.60;99.90
10441;DHT22;5268;49.346;9.522;2022-12-18T14:49:34;-1.70;99.90
10441;DHT22;5268;49.346;9.522;2022-12-18T14:54:37;-1.70;99.90
10441;DHT22;5268;49.346;9.522;2022-12-18T14:59:40;-1.80;99.90
10441;DHT22;5268;49.346;9.522;2022-12-18T15:04:43;-1.90;99.90
10441;DHT22;5268;49.346;9.522;2022-12-18T15:10:02;-1.90;99.90
10441;DHT22;5268;49.346;9.522;2022-12-18T15:20:31;-2.10;99.90
10441;DHT22;5268;49.346;9.522;2022-12-18T15:25:36;-2.10;99.90
10441;DHT22;5268;49.346;9.522;2022-12-18T15:30:39;-2.20;99.90
10441;DHT22;5268;49.346;9.522;2022-12-18T15:35:42;-2.10;99.90
10441;DHT22;5268;49.346;9.522;2022-12-18T15:40:44;-2.20;99.90
10441;DHT22;5268;49.346;9.522;2022-12-18T15:45:46;-2.40;99.90
10441;DHT22;5268;49.346;9.522;2022-12-18T15:50:50;-2.40;99.90
10441;DHT22;5268;49.346;9.522;2022-12-18T15:55:54;-2.50;99.90
10441;DHT22;5268;49.346;9.522;2022-12-18T16:01:14;-2.50;99.90
10441;DHT22;5268;49.346;9.522;2022-12-18T16:06:18;-2.60;99.90
10441;DHT22;5268;49.346;9.522;2022-12-18T16:11:22;-2.60;99.90
10441;DHT22;5268;49.346;9.522;2022-12-18T16:16:38;-2.70;99.90
10441;DHT22;5268;49.346;9.522;2022-12-18T16:21:41;-2.70;99.90
10441;DHT22;5268;49.346;9.522;2022-12-18T16:26:44;-2.70;99.90
10441;DHT22;5268;49.346;9.522;2022-12-18T16:31:46;-2.80;99.90
10441;DHT22;5268;49.346;9.522;2022-12-18T16:36:50;-2.80;99.90
10441;DHT22;5268;49.346;9.522;2022-12-18T16:41:52;-2.90;99.90
10441;DHT22;5268;49.346;9.522;2022-12-18T16:46:54;-2.90;99.90
10441;DHT22;5268;49.346;9.522;2022-12-18T16:52:04;-3.00;99.90
10441;DHT22;5268;49.346;9.522;2022-12-18T16:57:06;-3.00;99.90
10441;DHT22;5268;49.346;9.522;2022-12-18T17:02:12;-3.10;99.90
10441;DHT22;5268;49.346;9.522;2022-12-18T17:07:17;-3.10;99.90
10441;DHT22;5268;49.346;9.522;2022-12-18T17:12:20;-3.10;99.90
10441;DHT22;5268;49.346;9.522;2022-12-18T17:17:22;-3.10;99.90
10441;DHT22;5268;49.346;9.522;2022-12-18T17:22:25;-3.10;99.90
10441;DHT22;5268;49.346;9.522;2022-12-18T17:27:27;-3.10;99.90
10441;DHT22;5268;49.346;9.522;2022-12-18T17:32:30;-3.10;99.90
10441;DHT22;5268;49.346;9.522;2022-12-18T17:37:34;-3.10;99.90
10441;DHT22;5268;49.346;9.522;2022-12-18T17:42:36;-3.10;99.90
10441;DHT22;5268;49.346;9.522;2022-12-18T17:47:38;-3.10;99.90
10441;DHT22;5268;49.346;9.522;2022-12-18T17:52:41;-3.10;99.90
10441;DHT22;5268;49.346;9.522;2022-12-18T17:57:43;-3.10;99.90
10441;DHT22;5268;49.346;9.522;2022-12-18T18:02:45;-3.10;99.90
10441;DHT22;5268;49.346;9.522;2022-12-18T18:07:49;-3.20;99.90
10441;DHT22;5268;49.346;9.522;2022-12-18T18:12:52;-3.20;99.90
10441;DHT22;5268;49.346;9.522;2022-12-18T18:18:16;-3.30;99.90
10441;DHT22;5268;49.346;9.522;2022-12-18T18:23:20;-3.30;99.90
10441;DHT22;5268;49.346;9.522;2022-12-18T18:28:21;-3.30;99.90
10441;DHT22;5268;49.346;9.522;2022-12-18T18:33:24;-3.50;99.90
10441;DHT22;5268;49.346;9.522;2022-12-18T18:38:27;-3.50;99.90
10441;DHT22;5268;49.346;9.522;2022-12-18T18:43:30;-3.50;99.90
10441;DHT22;5268;49.346;9.522;2022-12-18T18:48:34;-3.50;99.90
10441;DHT22;5268;49.346;9.522;2022-12-18T18:53:41;-3.50;99.90
10441;DHT22;5268;49.346;9.522;2022-12-18T18:58:44;-3.50;99.90
10441;DHT22;5268;49.346;9.522;2022-12-18T19:03:47;-3.50;99.90
10441;DHT22;5268;49.346;9.522;2022-12-18T19:08:52;-3.50;99.90
10441;DHT22;5268;49.346;9.522;2022-12-18T19:13:54;-3.50;99.90
10441;DHT22;5268;49.346;9.522;2022-12-18T19:18:56;-3.40;99.90
10441;DHT22;5268;49.346;9.522;2022-12-18T19:24:00;-3.40;99.90
10441;DHT22;5268;49.346;9.522;2022-12-18T19:29:04;-3.30;99.90
10441;DHT22;5268;49.346;9.522;2022-12-18T19:34:07;-3.40;99.90
10441;DHT22;5268;49.346;9.522;2022-12-18T19:39:13;-3.40;99.90
10441;DHT22;5268;49.346;9.522;2022-12-18T19:44:17;-3.40;99.90
10441;DHT22;5268;49.346;9.522;2022-12-18T19:49:19;-3.40;99.90
10441;DHT22;5268;49.346;9.522;2022-12-18T19:54:22;-3.30;99.90
10441;DHT22;5268;49.346;9.522;2022-12-18T19:59:24;-3.30;99.90
10441;DHT22;5268;49.346;9.522;2022-12-18T20:04:27;-3.10;99.90
10441;DHT22;5268;49.346;9.522;2022-12-18T20:09:30;-2.90;99.90
10441;DHT22;5268;49.346;9.522;2022-12-18T20:14:32;-2.90;99.90
10441;DHT22;5268;49.346;9.522;2022-12-18T20:19:34;-2.90;99.90
10441;DHT22;5268;49.346;9.522;2022-12-18T20:24:38;-2.80;99.90
10441;DHT22;5268;49.346;9.522;2022-12-18T20:29:40;-2.80;99.90
10441;DHT22;5268;49.346;9.522;2022-12-18T20:34:43;-2.70;99.90
10441;DHT22;5268;49.346;9.522;2022-12-18T20:39:46;-2.70;99.90
10441;DHT22;5268;49.346;9.522;2022-12-18T20:44:48;-2.70;99.90
10441;DHT22;5268;49.346;9.522;2022-12-18T20:49:50;-2.60;99.90
10441;DHT22;5268;49.346;9.522;2022-12-18T20:54:53;-2.60;99.90
10441;DHT22;5268;49.346;9.522;2022-12-18T20:59:56;-2.60;99.90
10441;DHT22;5268;49.346;9.522;2022-12-18T21:04:58;-2.50;99.90
10441;DHT22;5268;49.346;9.522;2022-12-18T21:10:01;-2.60;99.90
10441;DHT22;5268;49.346;9.522;2022-12-18T21:15:36;-2.60;99.90
10441;DHT22;5268;49.346;9.522;2022-12-18T21:20:51;-2.60;99.90
10441;DHT22;5268;49.346;9.522;2022-12-18T21:26:14;-2.70;99.90
10441;DHT22;5268;49.346;9.522;2022-12-18T21:31:16;-2.70;99.90
10441;DHT22;5268;49.346;9.522;2022-12-18T21:36:19;-2.70;99.90
10441;DHT22;5268;49.346;9.522;2022-12-18T21:41:23;-2.70;99.90
10441;DHT22;5268;49.346;9.522;2022-12-18T21:46:45;-2.70;99.90
10441;DHT22;5268;49.346;9.522;2022-12-18T21:51:48;-2.80;99.90
10441;DHT22;5268;49.346;9.522;2022-12-18T21:56:53;-2.70;99.90
10441;DHT22;5268;49.346;9.522;2022-12-18T22:01:57;-2.70;99.90
10441;DHT22;5268;49.346;9.522;2022-12-18T22:06:59;-2.70;99.90
10441;DHT22;5268;49.346;9.522;2022-12-18T22:12:04;-2.70;99.90
10441;DHT22;5268;49.346;9.522;2022-12-18T22:17:08;-2.70;99.90
10441;DHT22;5268;49.346;9.522;2022-12-18T22:22:10;-2.80;99.90
10441;DHT22;5268;49.346;9.522;2022-12-18T22:27:14;-2.70;99.90
